Hiles, South Dakota
Current Conditions -  °F | °C
As of 2:55 AM on Sunday 26 Oct 2014 (Local Time) from KPHP Reporting Station
Clear Clear  
Wind Chill: 41°   Ceiling: Unl
Heat Index: 45°   Visibility: 10mi
Dew Point: 35°   Wind: 8mph
Humidity: 68%   Direction: 100°E
Pressure: 29.76"   Gusts: NA
Location:  43.5487°N, 101.811°W
Report Text: KPHP 260855Z AUTO 10007KT 10SM CLR 07/02 A2976 RMK AO2 SLP072 T00720017 56028
Loading
Personal Weather Stations






























Interactive Weather Map
Tropical Storm Tracking
New forecast layout! Learn more

10-Day Weather Forecast

Advertisements
Track Severe Weather on mobile